Main page
METAR-TAF:

METAR-TAF

Airports :

Kavala International Airport

Kavala, Greece

latitude: 40-59N, longitude: 024-36E, elevation: 5 m

Current weather observation

The report was made 58 minutes ago, at 18:20 UTC
Wind 5 kt from the Northeast
Temperature 6°C
Humidity 87%
Pressure 1020 hPa
Visibility 10 km or more
Few clouds at a height of 1800 ft
Broken clouds at a height of 3000 ft
Overcast at a height of 7000 ft

METAR: LGKV 291820Z 05005KT 9999 FEW018 BKN030 OVC070 06/04 Q1020

Time: 21:18 (19:18 UTC)

Forecast

The report was made 2 hours and 18 minutes ago, at 17:00 UTC
Forecast valid from 29 at 18 UTC to 30 at 18 UTC
Wind 3 kt from variable directions
Visibility 10 km or more
Few clouds at a height of 1000 ft
Broken clouds at a height of 2500 ft
Broken clouds at a height of 8000 ft

TAF: LGKV 291700Z 2918/3018 VRB03KT 9999 FEW010 BKN025 BKN080

Weather observations and forecasts of more than 4000 airports (METAR and TAF reports).

The available stations are represented by yellow and red dots on the map.

Hover mouse over dot to see the name of the station.

Then click to see weather observations and forecasts.

To change the map : click on the green buttons with a black cross to zoom in, on the green button with a dash to zoom out, or on the green arrows for adjacent maps.


METAR-TAF: